sensor_id;sensor_type;location;lat;lon;timestamp;P1;durP1;ratioP1;P2;durP2;ratioP2
45338;SDS011;31071;51.478;5.710;2023-04-25T00:02:03;15.57;;;4.15;;
45338;SDS011;31071;51.478;5.710;2023-04-25T00:04:30;15.10;;;4.47;;
45338;SDS011;31071;51.478;5.710;2023-04-25T00:06:58;17.08;;;4.63;;
45338;SDS011;31071;51.478;5.710;2023-04-25T00:09:26;11.82;;;4.60;;
45338;SDS011;31071;51.478;5.710;2023-04-25T00:11:52;13.38;;;4.45;;
45338;SDS011;31071;51.478;5.710;2023-04-25T00:14:18;10.70;;;4.15;;
45338;SDS011;31071;51.478;5.710;2023-04-25T00:16:43;13.40;;;4.03;;
45338;SDS011;31071;51.478;5.710;2023-04-25T00:19:09;14.48;;;4.78;;
45338;SDS011;31071;51.478;5.710;2023-04-25T00:21:35;18.05;;;5.28;;
45338;SDS011;31071;51.478;5.710;2023-04-25T00:24:02;12.25;;;4.30;;
45338;SDS011;31071;51.478;5.710;2023-04-25T00:26:28;13.30;;;4.70;;
45338;SDS011;31071;51.478;5.710;2023-04-25T00:28:54;13.95;;;5.38;;
45338;SDS011;31071;51.478;5.710;2023-04-25T00:31:19;18.25;;;4.28;;
45338;SDS011;31071;51.478;5.710;2023-04-25T00:33:45;17.58;;;4.32;;
45338;SDS011;31071;51.478;5.710;2023-04-25T00:36:10;12.95;;;4.18;;
45338;SDS011;31071;51.478;5.710;2023-04-25T00:38:36;16.05;;;4.85;;
45338;SDS011;31071;51.478;5.710;2023-04-25T00:41:03;12.02;;;4.00;;
45338;SDS011;31071;51.478;5.710;2023-04-25T00:43:31;14.25;;;4.70;;
45338;SDS011;31071;51.478;5.710;2023-04-25T00:45:57;12.65;;;4.85;;
45338;SDS011;31071;51.478;5.710;2023-04-25T00:48:25;16.05;;;4.70;;
45338;SDS011;31071;51.478;5.710;2023-04-25T00:50:52;14.10;;;4.78;;
45338;SDS011;31071;51.478;5.710;2023-04-25T00:53:21;16.40;;;4.70;;
45338;SDS011;31071;51.478;5.710;2023-04-25T00:55:47;15.70;;;4.45;;
45338;SDS011;31071;51.478;5.710;2023-04-25T00:58:15;17.05;;;4.60;;
45338;SDS011;31071;51.478;5.710;2023-04-25T01:00:41;14.85;;;4.63;;
45338;SDS011;31071;51.478;5.710;2023-04-25T01:03:08;13.05;;;4.20;;
45338;SDS011;31071;51.478;5.710;2023-04-25T01:05:34;20.58;;;4.40;;
45338;SDS011;31071;51.478;5.710;2023-04-25T01:08:00;19.75;;;4.72;;
45338;SDS011;31071;51.478;5.710;2023-04-25T01:10:26;19.13;;;4.82;;
45338;SDS011;31071;51.478;5.710;2023-04-25T01:12:52;13.23;;;4.80;;
45338;SDS011;31071;51.478;5.710;2023-04-25T01:15:17;16.48;;;4.47;;
45338;SDS011;31071;51.478;5.710;2023-04-25T01:17:43;18.65;;;5.03;;
45338;SDS011;31071;51.478;5.710;2023-04-25T01:20:09;19.42;;;4.50;;
45338;SDS011;31071;51.478;5.710;2023-04-25T01:22:36;18.02;;;4.68;;
45338;SDS011;31071;51.478;5.710;2023-04-25T01:25:01;16.52;;;5.90;;
45338;SDS011;31071;51.478;5.710;2023-04-25T01:27:27;21.55;;;4.80;;
45338;SDS011;31071;51.478;5.710;2023-04-25T01:29:54;18.73;;;4.63;;
45338;SDS011;31071;51.478;5.710;2023-04-25T01:32:21;13.60;;;4.63;;
45338;SDS011;31071;51.478;5.710;2023-04-25T01:34:47;17.50;;;4.47;;
45338;SDS011;31071;51.478;5.710;2023-04-25T01:37:13;17.52;;;4.88;;
45338;SDS011;31071;51.478;5.710;2023-04-25T01:39:38;21.25;;;4.70;;
45338;SDS011;31071;51.478;5.710;2023-04-25T01:42:04;17.48;;;4.88;;
45338;SDS011;31071;51.478;5.710;2023-04-25T01:44:29;14.57;;;5.25;;
45338;SDS011;31071;51.478;5.710;2023-04-25T01:46:55;17.77;;;4.78;;
45338;SDS011;31071;51.478;5.710;2023-04-25T01:49:20;19.23;;;5.32;;
45338;SDS011;31071;51.478;5.710;2023-04-25T01:51:46;14.57;;;3.65;;
45338;SDS011;31071;51.478;5.710;2023-04-25T01:54:11;18.00;;;5.45;;
45338;SDS011;31071;51.478;5.710;2023-04-25T01:56:38;24.48;;;4.95;;
45338;SDS011;31071;51.478;5.710;2023-04-25T01:59:05;18.08;;;5.38;;
45338;SDS011;31071;51.478;5.710;2023-04-25T02:01:30;17.13;;;4.90;;
45338;SDS011;31071;51.478;5.710;2023-04-25T02:03:56;22.02;;;5.80;;
45338;SDS011;31071;51.478;5.710;2023-04-25T02:06:22;21.38;;;6.07;;
45338;SDS011;31071;51.478;5.710;2023-04-25T02:08:47;22.27;;;6.35;;
45338;SDS011;31071;51.478;5.710;2023-04-25T02:11:13;26.67;;;6.28;;
45338;SDS011;31071;51.478;5.710;2023-04-25T02:13:39;18.77;;;5.70;;
45338;SDS011;31071;51.478;5.710;2023-04-25T02:16:04;19.70;;;5.63;;
45338;SDS011;31071;51.478;5.710;2023-04-25T02:18:30;24.40;;;6.00;;
45338;SDS011;31071;51.478;5.710;2023-04-25T02:20:56;24.15;;;6.35;;
45338;SDS011;31071;51.478;5.710;2023-04-25T02:23:22;28.60;;;6.55;;
45338;SDS011;31071;51.478;5.710;2023-04-25T02:25:51;26.70;;;7.03;;
45338;SDS011;31071;51.478;5.710;2023-04-25T02:28:17;19.75;;;5.72;;
45338;SDS011;31071;51.478;5.710;2023-04-25T02:30:46;29.98;;;5.78;;
45338;SDS011;31071;51.478;5.710;2023-04-25T02:33:11;21.48;;;6.25;;
45338;SDS011;31071;51.478;5.710;2023-04-25T02:35:41;22.90;;;6.05;;
45338;SDS011;31071;51.478;5.710;2023-04-25T02:38:07;16.42;;;5.75;;
45338;SDS011;31071;51.478;5.710;2023-04-25T02:40:32;32.47;;;5.95;;
45338;SDS011;31071;51.478;5.710;2023-04-25T02:42:58;20.45;;;5.13;;
45338;SDS011;31071;51.478;5.710;2023-04-25T02:45:23;21.00;;;5.80;;
45338;SDS011;31071;51.478;5.710;2023-04-25T02:47:49;18.50;;;5.75;;
45338;SDS011;31071;51.478;5.710;2023-04-25T02:50:14;14.57;;;5.40;;
45338;SDS011;31071;51.478;5.710;2023-04-25T02:52:40;22.65;;;6.38;;
45338;SDS011;31071;51.478;5.710;2023-04-25T02:55:05;17.05;;;5.88;;
45338;SDS011;31071;51.478;5.710;2023-04-25T02:57:31;18.63;;;5.28;;
45338;SDS011;31071;51.478;5.710;2023-04-25T02:59:57;27.83;;;5.55;;
45338;SDS011;31071;51.478;5.710;2023-04-25T03:02:22;22.45;;;5.60;;
45338;SDS011;31071;51.478;5.710;2023-04-25T03:04:48;23.48;;;5.90;;
45338;SDS011;31071;51.478;5.710;2023-04-25T03:07:13;24.00;;;6.07;;
45338;SDS011;31071;51.478;5.710;2023-04-25T03:09:39;16.80;;;5.78;;
45338;SDS011;31071;51.478;5.710;2023-04-25T03:12:04;22.15;;;5.93;;
45338;SDS011;31071;51.478;5.710;2023-04-25T03:14:30;15.75;;;5.18;;
45338;SDS011;31071;51.478;5.710;2023-04-25T03:16:55;26.70;;;6.18;;
45338;SDS011;31071;51.478;5.710;2023-04-25T03:19:21;19.63;;;5.57;;
45338;SDS011;31071;51.478;5.710;2023-04-25T03:21:46;25.10;;;6.90;;
45338;SDS011;31071;51.478;5.710;2023-04-25T03:24:12;20.00;;;5.38;;
45338;SDS011;31071;51.478;5.710;2023-04-25T03:26:38;22.13;;;5.88;;
45338;SDS011;31071;51.478;5.710;2023-04-25T03:29:03;21.42;;;5.78;;
45338;SDS011;31071;51.478;5.710;2023-04-25T03:31:29;17.65;;;5.30;;
45338;SDS011;31071;51.478;5.710;2023-04-25T03:33:55;23.98;;;6.50;;
45338;SDS011;31071;51.478;5.710;2023-04-25T03:36:20;20.95;;;6.13;;
45338;SDS011;31071;51.478;5.710;2023-04-25T03:38:46;23.50;;;6.88;;
45338;SDS011;31071;51.478;5.710;2023-04-25T03:41:13;27.40;;;6.82;;
45338;SDS011;31071;51.478;5.710;2023-04-25T03:43:38;19.33;;;6.13;;
45338;SDS011;31071;51.478;5.710;2023-04-25T03:46:04;20.83;;;5.20;;
45338;SDS011;31071;51.478;5.710;2023-04-25T03:48:30;18.42;;;6.05;;
45338;SDS011;31071;51.478;5.710;2023-04-25T03:50:55;16.27;;;5.82;;
45338;SDS011;31071;51.478;5.710;2023-04-25T03:53:21;20.67;;;5.90;;
45338;SDS011;31071;51.478;5.710;2023-04-25T03:55:46;21.20;;;5.72;;
45338;SDS011;31071;51.478;5.710;2023-04-25T03:58:12;21.42;;;5.65;;
45338;SDS011;31071;51.478;5.710;2023-04-25T04:00:37;16.55;;;5.68;;
45338;SDS011;31071;51.478;5.710;2023-04-25T04:03:03;17.63;;;5.28;;
45338;SDS011;31071;51.478;5.710;2023-04-25T04:05:28;19.27;;;5.80;;
45338;SDS011;31071;51.478;5.710;2023-04-25T04:07:54;22.75;;;5.93;;
45338;SDS011;31071;51.478;5.710;2023-04-25T04:10:20;25.20;;;5.72;;
45338;SDS011;31071;51.478;5.710;2023-04-25T04:12:45;20.50;;;5.25;;
45338;SDS011;31071;51.478;5.710;2023-04-25T04:15:11;28.38;;;5.85;;
45338;SDS011;31071;51.478;5.710;2023-04-25T04:17:36;19.20;;;5.70;;
45338;SDS011;31071;51.478;5.710;2023-04-25T04:20:02;17.98;;;5.72;;
45338;SDS011;31071;51.478;5.710;2023-04-25T04:22:28;18.30;;;6.00;;
45338;SDS011;31071;51.478;5.710;2023-04-25T04:24:54;19.50;;;6.32;;
45338;SDS011;31071;51.478;5.710;2023-04-25T04:27:21;20.60;;;6.40;;
45338;SDS011;31071;51.478;5.710;2023-04-25T04:29:47;28.90;;;6.22;;
45338;SDS011;31071;51.478;5.710;2023-04-25T04:32:14;22.77;;;6.25;;
45338;SDS011;31071;51.478;5.710;2023-04-25T04:34:40;32.13;;;6.05;;
45338;SDS011;31071;51.478;5.710;2023-04-25T04:37:06;21.45;;;5.57;;
45338;SDS011;31071;51.478;5.710;2023-04-25T04:39:32;20.83;;;6.65;;
45338;SDS011;31071;51.478;5.710;2023-04-25T04:41:58;18.15;;;5.55;;
45338;SDS011;31071;51.478;5.710;2023-04-25T04:44:24;19.42;;;6.40;;
45338;SDS011;31071;51.478;5.710;2023-04-25T04:46:50;19.15;;;6.15;;
45338;SDS011;31071;51.478;5.710;2023-04-25T04:49:16;26.70;;;6.95;;
45338;SDS011;31071;51.478;5.710;2023-04-25T04:51:42;18.92;;;5.97;;
45338;SDS011;31071;51.478;5.710;2023-04-25T04:54:09;19.92;;;5.78;;
45338;SDS011;31071;51.478;5.710;2023-04-25T04:56:34;30.17;;;6.03;;
45338;SDS011;31071;51.478;5.710;2023-04-25T04:59:00;22.25;;;6.70;;
45338;SDS011;31071;51.478;5.710;2023-04-25T05:01:27;23.23;;;6.20;;
45338;SDS011;31071;51.478;5.710;2023-04-25T05:03:54;24.13;;;6.47;;
45338;SDS011;31071;51.478;5.710;2023-04-25T05:06:25;24.45;;;5.95;;
45338;SDS011;31071;51.478;5.710;2023-04-25T05:08:50;17.60;;;5.65;;
45338;SDS011;31071;51.478;5.710;2023-04-25T05:11:17;20.83;;;5.65;;
45338;SDS011;31071;51.478;5.710;2023-04-25T05:13:43;25.60;;;6.47;;
45338;SDS011;31071;51.478;5.710;2023-04-25T05:16:08;26.33;;;5.97;;
45338;SDS011;31071;51.478;5.710;2023-04-25T05:18:34;23.13;;;5.55;;
45338;SDS011;31071;51.478;5.710;2023-04-25T05:21:00;27.08;;;6.15;;
45338;SDS011;31071;51.478;5.710;2023-04-25T05:23:25;20.95;;;5.38;;
45338;SDS011;31071;51.478;5.710;2023-04-25T05:25:52;19.85;;;5.60;;
45338;SDS011;31071;51.478;5.710;2023-04-25T05:28:18;24.17;;;4.97;;
45338;SDS011;31071;51.478;5.710;2023-04-25T05:30:44;25.48;;;5.50;;
45338;SDS011;31071;51.478;5.710;2023-04-25T05:33:09;20.23;;;5.57;;
45338;SDS011;31071;51.478;5.710;2023-04-25T05:35:35;19.35;;;5.95;;
45338;SDS011;31071;51.478;5.710;2023-04-25T05:38:00;18.92;;;5.40;;
45338;SDS011;31071;51.478;5.710;2023-04-25T05:40:26;19.15;;;5.63;;
45338;SDS011;31071;51.478;5.710;2023-04-25T05:42:51;20.83;;;5.20;;
45338;SDS011;31071;51.478;5.710;2023-04-25T05:45:17;25.45;;;5.13;;
45338;SDS011;31071;51.478;5.710;2023-04-25T05:47:42;18.33;;;5.38;;
45338;SDS011;31071;51.478;5.710;2023-04-25T05:50:08;18.73;;;4.82;;
45338;SDS011;31071;51.478;5.710;2023-04-25T05:52:34;21.98;;;5.55;;
45338;SDS011;31071;51.478;5.710;2023-04-25T05:55:00;19.35;;;5.22;;
45338;SDS011;31071;51.478;5.710;2023-04-25T05:57:26;16.75;;;5.75;;
45338;SDS011;31071;51.478;5.710;2023-04-25T05:59:52;15.45;;;4.85;;
45338;SDS011;31071;51.478;5.710;2023-04-25T06:02:19;23.08;;;5.68;;
45338;SDS011;31071;51.478;5.710;2023-04-25T06:04:46;14.70;;;4.90;;
45338;SDS011;31071;51.478;5.710;2023-04-25T06:07:11;19.98;;;4.90;;
45338;SDS011;31071;51.478;5.710;2023-04-25T06:09:37;17.50;;;5.32;;
45338;SDS011;31071;51.478;5.710;2023-04-25T06:12:04;18.88;;;4.60;;
45338;SDS011;31071;51.478;5.710;2023-04-25T06:14:30;17.83;;;5.40;;
45338;SDS011;31071;51.478;5.710;2023-04-25T06:16:56;19.02;;;4.90;;
45338;SDS011;31071;51.478;5.710;2023-04-25T06:19:21;16.38;;;4.38;;
45338;SDS011;31071;51.478;5.710;2023-04-25T06:21:47;15.77;;;4.60;;
45338;SDS011;31071;51.478;5.710;2023-04-25T06:24:12;12.43;;;3.75;;
45338;SDS011;31071;51.478;5.710;2023-04-25T06:26:38;16.25;;;3.88;;
45338;SDS011;31071;51.478;5.710;2023-04-25T06:29:03;13.60;;;3.60;;
45338;SDS011;31071;51.478;5.710;2023-04-25T06:31:29;14.63;;;4.47;;
45338;SDS011;31071;51.478;5.710;2023-04-25T06:33:57;15.85;;;4.10;;
45338;SDS011;31071;51.478;5.710;2023-04-25T06:36:23;12.52;;;3.60;;
45338;SDS011;31071;51.478;5.710;2023-04-25T06:38:53;13.65;;;3.13;;
45338;SDS011;31071;51.478;5.710;2023-04-25T06:41:19;22.67;;;3.28;;
45338;SDS011;31071;51.478;5.710;2023-04-25T06:43:45;10.95;;;3.03;;
45338;SDS011;31071;51.478;5.710;2023-04-25T06:46:11;14.18;;;3.00;;
45338;SDS011;31071;51.478;5.710;2023-04-25T06:48:36;12.50;;;3.13;;
45338;SDS011;31071;51.478;5.710;2023-04-25T06:51:02;15.70;;;3.50;;
45338;SDS011;31071;51.478;5.710;2023-04-25T06:53:28;15.48;;;3.58;;
45338;SDS011;31071;51.478;5.710;2023-04-25T06:55:53;13.20;;;3.63;;
45338;SDS011;31071;51.478;5.710;2023-04-25T06:58:19;14.13;;;4.07;;
45338;SDS011;31071;51.478;5.710;2023-04-25T07:00:44;11.40;;;3.58;;
45338;SDS011;31071;51.478;5.710;2023-04-25T07:03:10;18.98;;;4.32;;
45338;SDS011;31071;51.478;5.710;2023-04-25T07:05:35;18.00;;;3.55;;
45338;SDS011;31071;51.478;5.710;2023-04-25T07:08:02;14.88;;;3.55;;
45338;SDS011;31071;51.478;5.710;2023-04-25T07:10:28;15.23;;;3.58;;
45338;SDS011;31071;51.478;5.710;2023-04-25T07:12:53;13.52;;;3.38;;
45338;SDS011;31071;51.478;5.710;2023-04-25T07:15:19;9.65;;;2.65;;
45338;SDS011;31071;51.478;5.710;2023-04-25T07:17:44;11.73;;;2.97;;
45338;SDS011;31071;51.478;5.710;2023-04-25T07:20:10;13.27;;;2.92;;
45338;SDS011;31071;51.478;5.710;2023-04-25T07:22:36;13.65;;;2.90;;
45338;SDS011;31071;51.478;5.710;2023-04-25T07:25:01;12.88;;;3.05;;
45338;SDS011;31071;51.478;5.710;2023-04-25T07:27:29;10.93;;;2.83;;
45338;SDS011;31071;51.478;5.710;2023-04-25T07:29:54;14.15;;;2.88;;
45338;SDS011;31071;51.478;5.710;2023-04-25T07:32:20;10.00;;;1.85;;
45338;SDS011;31071;51.478;5.710;2023-04-25T07:34:45;8.80;;;2.58;;
45338;SDS011;31071;51.478;5.710;2023-04-25T07:37:11;9.93;;;2.03;;
45338;SDS011;31071;51.478;5.710;2023-04-25T07:39:36;12.55;;;2.70;;
45338;SDS011;31071;51.478;5.710;2023-04-25T07:42:02;13.48;;;2.50;;
45338;SDS011;31071;51.478;5.710;2023-04-25T07:44:28;12.90;;;2.33;;
45338;SDS011;31071;51.478;5.710;2023-04-25T07:46:55;8.55;;;2.40;;
45338;SDS011;31071;51.478;5.710;2023-04-25T07:49:21;8.50;;;2.20;;
45338;SDS011;31071;51.478;5.710;2023-04-25T07:51:46;8.95;;;2.00;;
45338;SDS011;31071;51.478;5.710;2023-04-25T07:54:13;7.97;;;2.08;;
45338;SDS011;31071;51.478;5.710;2023-04-25T07:56:39;10.02;;;1.85;;
45338;SDS011;31071;51.478;5.710;2023-04-25T07:59:05;8.48;;;2.95;;
45338;SDS011;31071;51.478;5.710;2023-04-25T08:01:30;12.02;;;2.42;;
45338;SDS011;31071;51.478;5.710;2023-04-25T08:03:56;7.07;;;1.75;;
45338;SDS011;31071;51.478;5.710;2023-04-25T08:06:21;9.10;;;2.05;;
45338;SDS011;31071;51.478;5.710;2023-04-25T08:08:47;10.00;;;2.30;;
45338;SDS011;31071;51.478;5.710;2023-04-25T08:11:13;10.90;;;2.00;;
45338;SDS011;31071;51.478;5.710;2023-04-25T08:13:38;10.35;;;2.17;;
45338;SDS011;31071;51.478;5.710;2023-04-25T08:16:04;8.52;;;2.17;;
45338;SDS011;31071;51.478;5.710;2023-04-25T08:18:29;5.55;;;2.08;;
45338;SDS011;31071;51.478;5.710;2023-04-25T08:20:55;9.30;;;2.35;;
45338;SDS011;31071;51.478;5.710;2023-04-25T08:23:21;10.48;;;2.50;;
45338;SDS011;31071;51.478;5.710;2023-04-25T08:25:46;8.70;;;2.50;;
45338;SDS011;31071;51.478;5.710;2023-04-25T08:28:12;8.48;;;2.30;;
45338;SDS011;31071;51.478;5.710;2023-04-25T08:30:37;7.78;;;2.15;;
45338;SDS011;31071;51.478;5.710;2023-04-25T08:33:03;14.25;;;2.53;;
45338;SDS011;31071;51.478;5.710;2023-04-25T08:35:28;9.75;;;2.40;;
45338;SDS011;31071;51.478;5.710;2023-04-25T08:37:54;7.70;;;2.10;;
45338;SDS011;31071;51.478;5.710;2023-04-25T08:40:20;9.07;;;2.33;;
45338;SDS011;31071;51.478;5.710;2023-04-25T08:42:51;9.90;;;2.28;;
45338;SDS011;31071;51.478;5.710;2023-04-25T08:45:18;9.40;;;2.13;;
45338;SDS011;31071;51.478;5.710;2023-04-25T08:47:45;13.80;;;2.28;;
45338;SDS011;31071;51.478;5.710;2023-04-25T08:50:10;9.32;;;2.35;;
45338;SDS011;31071;51.478;5.710;2023-04-25T08:52:37;11.88;;;2.20;;
45338;SDS011;31071;51.478;5.710;2023-04-25T08:55:08;6.95;;;1.70;;
45338;SDS011;31071;51.478;5.710;2023-04-25T08:57:36;12.23;;;2.08;;
45338;SDS011;31071;51.478;5.710;2023-04-25T09:00:02;12.20;;;2.40;;
45338;SDS011;31071;51.478;5.710;2023-04-25T09:02:29;6.35;;;1.70;;
45338;SDS011;31071;51.478;5.710;2023-04-25T09:04:54;8.70;;;1.80;;
45338;SDS011;31071;51.478;5.710;2023-04-25T09:07:21;8.63;;;1.92;;
45338;SDS011;31071;51.478;5.710;2023-04-25T09:09:47;6.72;;;1.60;;
45338;SDS011;31071;51.478;5.710;2023-04-25T09:12:12;8.20;;;1.65;;
45338;SDS011;31071;51.478;5.710;2023-04-25T09:14:38;8.95;;;2.25;;
45338;SDS011;31071;51.478;5.710;2023-04-25T09:17:04;10.80;;;2.20;;
45338;SDS011;31071;51.478;5.710;2023-04-25T09:19:33;8.45;;;2.08;;
45338;SDS011;31071;51.478;5.710;2023-04-25T09:22:01;9.65;;;1.70;;
45338;SDS011;31071;51.478;5.710;2023-04-25T09:24:38;11.07;;;2.15;;
45338;SDS011;31071;51.478;5.710;2023-04-25T09:27:19;11.63;;;2.00;;
45338;SDS011;31071;51.478;5.710;2023-04-25T09:29:50;9.57;;;2.95;;
45338;SDS011;31071;51.478;5.710;2023-04-25T09:34:53;6.40;;;2.20;;
45338;SDS011;31071;51.478;5.710;2023-04-25T09:39:50;9.68;;;2.33;;
45338;SDS011;31071;51.478;5.710;2023-04-25T09:42:20;9.32;;;2.38;;
45338;SDS011;31071;51.478;5.710;2023-04-25T09:44:48;7.30;;;1.52;;
45338;SDS011;31071;51.478;5.710;2023-04-25T09:47:17;6.32;;;1.90;;
45338;SDS011;31071;51.478;5.710;2023-04-25T09:49:43;10.43;;;2.50;;
45338;SDS011;31071;51.478;5.710;2023-04-25T09:52:09;9.98;;;2.47;;
45338;SDS011;31071;51.478;5.710;2023-04-25T09:54:39;8.13;;;2.25;;
45338;SDS011;31071;51.478;5.710;2023-04-25T09:57:10;9.40;;;2.25;;
45338;SDS011;31071;51.478;5.710;2023-04-25T09:59:44;8.23;;;1.92;;
45338;SDS011;31071;51.478;5.710;2023-04-25T10:02:12;8.68;;;1.63;;
45338;SDS011;31071;51.478;5.710;2023-04-25T10:04:39;4.82;;;1.20;;
45338;SDS011;31071;51.478;5.710;2023-04-25T10:07:07;2.85;;;1.08;;
45338;SDS011;31071;51.478;5.710;2023-04-25T10:09:33;4.13;;;1.00;;
45338;SDS011;31071;51.478;5.710;2023-04-25T10:12:02;4.43;;;0.93;;
45338;SDS011;31071;51.478;5.710;2023-04-25T10:14:30;1.27;;;0.60;;
45338;SDS011;31071;51.478;5.710;2023-04-25T10:16:57;4.15;;;0.95;;
45338;SDS011;31071;51.478;5.710;2023-04-25T10:19:24;5.43;;;1.25;;
45338;SDS011;31071;51.478;5.710;2023-04-25T10:22:13;4.63;;;1.13;;
45338;SDS011;31071;51.478;5.710;2023-04-25T10:24:38;6.65;;;1.42;;
45338;SDS011;31071;51.478;5.710;2023-04-25T10:27:04;3.63;;;1.23;;
45338;SDS011;31071;51.478;5.710;2023-04-25T10:29:31;4.53;;;1.23;;
45338;SDS011;31071;51.478;5.710;2023-04-25T10:31:56;2.95;;;1.00;;
45338;SDS011;31071;51.478;5.710;2023-04-25T10:34:41;5.03;;;0.90;;
45338;SDS011;31071;51.478;5.710;2023-04-25T10:37:09;3.17;;;0.80;;
45338;SDS011;31071;51.478;5.710;2023-04-25T10:39:37;3.40;;;1.08;;
45338;SDS011;31071;51.478;5.710;2023-04-25T10:42:04;4.63;;;1.08;;
45338;SDS011;31071;51.478;5.710;2023-04-25T10:44:29;4.55;;;1.00;;
45338;SDS011;31071;51.478;5.710;2023-04-25T10:46:56;3.80;;;0.98;;
45338;SDS011;31071;51.478;5.710;2023-04-25T10:49:41;3.33;;;0.55;;
45338;SDS011;31071;51.478;5.710;2023-04-25T10:54:39;5.35;;;1.10;;
45338;SDS011;31071;51.478;5.710;2023-04-25T10:57:06;3.67;;;1.10;;
45338;SDS011;31071;51.478;5.710;2023-04-25T10:59:32;4.65;;;1.00;;
45338;SDS011;31071;51.478;5.710;2023-04-25T11:01:57;6.13;;;1.45;;
45338;SDS011;31071;51.478;5.710;2023-04-25T11:04:30;5.82;;;1.50;;
45338;SDS011;31071;51.478;5.710;2023-04-25T11:09:48;6.15;;;1.45;;
45338;SDS011;31071;51.478;5.710;2023-04-25T11:12:14;3.95;;;1.42;;
45338;SDS011;31071;51.478;5.710;2023-04-25T11:14:41;2.55;;;1.02;;
45338;SDS011;31071;51.478;5.710;2023-04-25T11:17:06;7.10;;;1.77;;
45338;SDS011;31071;51.478;5.710;2023-04-25T11:19:32;6.13;;;1.50;;
45338;SDS011;31071;51.478;5.710;2023-04-25T11:21:58;6.45;;;1.73;;
45338;SDS011;31071;51.478;5.710;2023-04-25T11:24:28;4.97;;;1.35;;
45338;SDS011;31071;51.478;5.710;2023-04-25T11:26:54;7.70;;;1.80;;
45338;SDS011;31071;51.478;5.710;2023-04-25T11:29:23;5.15;;;1.33;;
45338;SDS011;31071;51.478;5.710;2023-04-25T11:31:52;5.97;;;1.60;;
45338;SDS011;31071;51.478;5.710;2023-04-25T11:34:22;4.30;;;1.80;;
45338;SDS011;31071;51.478;5.710;2023-04-25T11:36:49;5.97;;;1.65;;
45338;SDS011;31071;51.478;5.710;2023-04-25T11:39:15;8.63;;;1.65;;
45338;SDS011;31071;51.478;5.710;2023-04-25T11:41:41;6.63;;;2.53;;
45338;SDS011;31071;51.478;5.710;2023-04-25T11:44:07;8.93;;;1.80;;
45338;SDS011;31071;51.478;5.710;2023-04-25T11:46:35;4.95;;;1.50;;
45338;SDS011;31071;51.478;5.710;2023-04-25T11:49:01;3.60;;;1.45;;
45338;SDS011;31071;51.478;5.710;2023-04-25T11:51:28;5.70;;;1.67;;
45338;SDS011;31071;51.478;5.710;2023-04-25T11:53:53;4.18;;;1.55;;
45338;SDS011;31071;51.478;5.710;2023-04-25T11:56:19;8.98;;;1.75;;
45338;SDS011;31071;51.478;5.710;2023-04-25T12:01:25;5.70;;;1.90;;
45338;SDS011;31071;51.478;5.710;2023-04-25T12:03:55;6.53;;;1.85;;
45338;SDS011;31071;51.478;5.710;2023-04-25T12:06:20;3.45;;;1.85;;
45338;SDS011;31071;51.478;5.710;2023-04-25T12:08:59;11.40;;;2.00;;
45338;SDS011;31071;51.478;5.710;2023-04-25T12:11:32;6.00;;;1.88;;
45338;SDS011;31071;51.478;5.710;2023-04-25T12:14:05;5.88;;;1.75;;
45338;SDS011;31071;51.478;5.710;2023-04-25T12:16:53;7.93;;;2.10;;
45338;SDS011;31071;51.478;5.710;2023-04-25T12:19:18;13.20;;;1.95;;
45338;SDS011;31071;51.478;5.710;2023-04-25T12:21:45;6.88;;;1.40;;
45338;SDS011;31071;51.478;5.710;2023-04-25T12:24:12;7.03;;;1.52;;
45338;SDS011;31071;51.478;5.710;2023-04-25T12:26:49;6.53;;;1.55;;
45338;SDS011;31071;51.478;5.710;2023-04-25T12:32:02;6.60;;;1.15;;
45338;SDS011;31071;51.478;5.710;2023-04-25T12:34:37;4.18;;;1.17;;
45338;SDS011;31071;51.478;5.710;2023-04-25T12:37:05;5.30;;;0.90;;
45338;SDS011;31071;51.478;5.710;2023-04-25T12:39:31;4.30;;;1.10;;
45338;SDS011;31071;51.478;5.710;2023-04-25T12:41:56;2.65;;;0.98;;
45338;SDS011;31071;51.478;5.710;2023-04-25T12:44:22;2.72;;;1.08;;
45338;SDS011;31071;51.478;5.710;2023-04-25T12:46:48;2.25;;;0.80;;
45338;SDS011;31071;51.478;5.710;2023-04-25T12:49:13;4.75;;;1.48;;
45338;SDS011;31071;51.478;5.710;2023-04-25T12:51:39;6.05;;;1.10;;
45338;SDS011;31071;51.478;5.710;2023-04-25T12:54:06;5.40;;;1.23;;
45338;SDS011;31071;51.478;5.710;2023-04-25T12:56:33;2.00;;;0.82;;
45338;SDS011;31071;51.478;5.710;2023-04-25T12:58:59;2.75;;;0.70;;
45338;SDS011;31071;51.478;5.710;2023-04-25T13:01:25;2.40;;;0.70;;
45338;SDS011;31071;51.478;5.710;2023-04-25T13:03:51;2.65;;;0.93;;
45338;SDS011;31071;51.478;5.710;2023-04-25T13:06:18;3.17;;;1.00;;
45338;SDS011;31071;51.478;5.710;2023-04-25T13:08:44;3.70;;;0.88;;
45338;SDS011;31071;51.478;5.710;2023-04-25T13:11:14;3.45;;;0.77;;
45338;SDS011;31071;51.478;5.710;2023-04-25T13:13:41;3.10;;;0.70;;
45338;SDS011;31071;51.478;5.710;2023-04-25T13:16:07;2.65;;;0.90;;
45338;SDS011;31071;51.478;5.710;2023-04-25T13:18:33;4.57;;;0.82;;
45338;SDS011;31071;51.478;5.710;2023-04-25T13:20:59;3.10;;;1.17;;
45338;SDS011;31071;51.478;5.710;2023-04-25T13:23:26;3.95;;;1.08;;
45338;SDS011;31071;51.478;5.710;2023-04-25T13:25:52;7.15;;;1.75;;
45338;SDS011;31071;51.478;5.710;2023-04-25T13:28:19;4.38;;;1.23;;
45338;SDS011;31071;51.478;5.710;2023-04-25T13:30:45;6.05;;;1.23;;
45338;SDS011;31071;51.478;5.710;2023-04-25T13:33:12;4.30;;;1.30;;
45338;SDS011;31071;51.478;5.710;2023-04-25T13:35:41;4.03;;;1.20;;
45338;SDS011;31071;51.478;5.710;2023-04-25T13:38:07;5.38;;;1.40;;
45338;SDS011;31071;51.478;5.710;2023-04-25T13:40:32;6.57;;;1.20;;
45338;SDS011;31071;51.478;5.710;2023-04-25T13:42:58;5.35;;;1.20;;
45338;SDS011;31071;51.478;5.710;2023-04-25T13:45:24;6.50;;;1.50;;
45338;SDS011;31071;51.478;5.710;2023-04-25T13:47:49;8.73;;;1.30;;
45338;SDS011;31071;51.478;5.710;2023-04-25T13:50:15;3.88;;;1.17;;
45338;SDS011;31071;51.478;5.710;2023-04-25T13:52:41;4.35;;;1.20;;
45338;SDS011;31071;51.478;5.710;2023-04-25T13:55:07;3.40;;;1.08;;
45338;SDS011;31071;51.478;5.710;2023-04-25T13:57:34;3.38;;;1.25;;
45338;SDS011;31071;51.478;5.710;2023-04-25T14:00:00;4.88;;;1.10;;
45338;SDS011;31071;51.478;5.710;2023-04-25T14:02:31;6.03;;;1.63;;
45338;SDS011;31071;51.478;5.710;2023-04-25T14:04:56;4.15;;;1.15;;
45338;SDS011;31071;51.478;5.710;2023-04-25T14:07:22;7.95;;;1.10;;
45338;SDS011;31071;51.478;5.710;2023-04-25T14:09:47;3.22;;;1.67;;
45338;SDS011;31071;51.478;5.710;2023-04-25T14:12:13;3.95;;;1.38;;
45338;SDS011;31071;51.478;5.710;2023-04-25T14:14:38;3.78;;;1.27;;
45338;SDS011;31071;51.478;5.710;2023-04-25T14:17:05;8.00;;;1.60;;
45338;SDS011;31071;51.478;5.710;2023-04-25T14:19:31;5.57;;;1.52;;
45338;SDS011;31071;51.478;5.710;2023-04-25T14:21:57;3.80;;;1.25;;
45338;SDS011;31071;51.478;5.710;2023-04-25T14:24:22;7.50;;;1.50;;
45338;SDS011;31071;51.478;5.710;2023-04-25T14:26:48;4.50;;;1.40;;
45338;SDS011;31071;51.478;5.710;2023-04-25T14:29:13;3.42;;;1.35;;
45338;SDS011;31071;51.478;5.710;2023-04-25T14:31:39;4.75;;;1.52;;
45338;SDS011;31071;51.478;5.710;2023-04-25T14:34:05;5.57;;;1.58;;
45338;SDS011;31071;51.478;5.710;2023-04-25T14:36:32;7.57;;;1.45;;
45338;SDS011;31071;51.478;5.710;2023-04-25T14:38:58;13.15;;;1.85;;
45338;SDS011;31071;51.478;5.710;2023-04-25T14:41:24;5.53;;;1.50;;
45338;SDS011;31071;51.478;5.710;2023-04-25T14:43:51;4.68;;;1.35;;
45338;SDS011;31071;51.478;5.710;2023-04-25T14:46:21;5.03;;;1.27;;
45338;SDS011;31071;51.478;5.710;2023-04-25T14:48:48;6.38;;;1.30;;
45338;SDS011;31071;51.478;5.710;2023-04-25T14:51:13;7.28;;;1.42;;
45338;SDS011;31071;51.478;5.710;2023-04-25T14:53:40;3.75;;;1.60;;